createdAt,value
2022-11-03T00:02:12.009Z,72.56
2022-11-03T00:12:15.567Z,72.65
2022-11-03T00:22:18.902Z,72.69
2022-11-03T00:32:22.181Z,72.58
2022-11-03T00:42:25.432Z,72.77
2022-11-03T00:52:28.738Z,72.84
2022-11-03T01:02:32.081Z,72.96
2022-11-03T01:12:35.467Z,73.07
2022-11-03T01:22:38.724Z,73.10
2022-11-03T01:32:42.073Z,72.95
2022-11-03T01:42:45.310Z,72.99
2022-11-03T01:52:56.249Z,72.81
2022-11-03T02:03:01.212Z,73.09
2022-11-03T02:13:12.960Z,73.54
2022-11-03T02:23:29.307Z,73.53
2022-11-03T02:33:48.001Z,73.59
2022-11-03T02:43:52.791Z,73.51
2022-11-03T02:54:14.681Z,73.55
2022-11-03T03:04:43.607Z,73.52
2022-11-03T03:14:49.525Z,73.36
2022-11-03T03:25:15.219Z,73.23
2022-11-03T03:35:23.884Z,73.28
2022-11-03T03:45:27.675Z,73.30
2022-11-03T03:55:39.391Z,73.38
2022-11-03T04:05:42.816Z,73.32
2022-11-03T04:15:51.911Z,73.41
2022-11-03T04:25:56.979Z,73.37
2022-11-03T04:36:00.687Z,73.27
2022-11-03T04:46:04.572Z,73.08
2022-11-03T04:56:15.888Z,73.02
2022-11-03T05:06:20.518Z,72.97
2022-11-03T05:16:24.846Z,72.73
2022-11-03T05:26:34.744Z,72.82
2022-11-03T05:36:38.935Z,72.82
2022-11-03T05:46:42.276Z,72.70
2022-11-03T05:56:45.587Z,72.84
2022-11-03T06:06:56.062Z,72.78
2022-11-03T06:17:08.383Z,72.59
2022-11-03T06:27:18.896Z,72.63
2022-11-03T06:37:27.892Z,72.60
2022-11-03T06:47:31.141Z,72.09
2022-11-03T06:57:43.235Z,71.87
2022-11-03T07:07:47.334Z,71.30
2022-11-03T07:17:50.998Z,70.65
2022-11-03T07:27:58.727Z,70.53
2022-11-03T07:38:10.121Z,69.93
2022-11-03T07:48:16.596Z,69.41
2022-11-03T07:58:24.763Z,68.97
2022-11-03T08:08:28.000Z,68.55
2022-11-03T08:18:31.298Z,68.63
2022-11-03T08:28:35.139Z,68.61
2022-11-03T08:38:38.653Z,68.46
2022-11-03T08:48:41.972Z,68.38
2022-11-03T08:58:45.304Z,67.99
2022-11-03T09:19:12.071Z,67.46
2022-11-03T09:29:15.275Z,66.96
2022-11-03T09:39:18.509Z,66.57
2022-11-03T09:49:21.924Z,66.38
2022-11-03T09:59:25.682Z,65.57
2022-11-03T10:09:29.887Z,64.97
2022-11-03T10:19:33.128Z,64.50
2022-11-03T10:29:38.895Z,63.78
2022-11-03T10:39:47.892Z,63.27
2022-11-03T10:49:51.457Z,62.90
2022-11-03T10:59:55.772Z,61.80
2022-11-03T11:10:07.252Z,61.08
2022-11-03T11:20:22.961Z,60.61
2022-11-03T11:30:29.210Z,59.72
2022-11-03T11:40:32.443Z,58.60
2022-11-03T11:50:36.421Z,57.80
2022-11-03T12:00:51.645Z,57.07
2022-11-03T12:10:57.981Z,55.56
2022-11-03T12:21:06.494Z,54.32
2022-11-03T12:31:09.777Z,53.61
2022-11-03T12:41:22.301Z,53.24
2022-11-03T12:51:25.988Z,53.25
2022-11-03T13:01:30.570Z,53.13
2022-11-03T13:11:52.765Z,52.85
2022-11-03T13:21:56.015Z,52.75
2022-11-03T13:31:59.406Z,52.66
2022-11-03T13:42:02.729Z,52.34
2022-11-03T13:52:06.310Z,52.46
2022-11-03T14:12:33.338Z,53.34
2022-11-03T14:22:37.159Z,53.46
2022-11-03T14:32:40.374Z,53.29
2022-11-03T14:42:43.912Z,53.08
2022-11-03T14:52:47.341Z,53.81
2022-11-03T15:02:50.556Z,54.55
2022-11-03T15:12:53.749Z,55.35
2022-11-03T15:33:21.499Z,57.07
2022-11-03T15:43:24.760Z,57.75
2022-11-03T15:53:28.060Z,58.68
2022-11-03T16:03:34.994Z,59.46
2022-11-03T16:13:38.370Z,60.46
2022-11-03T16:23:42.325Z,61.28
2022-11-03T16:33:46.264Z,61.81
2022-11-03T16:43:50.509Z,62.28
2022-11-03T16:53:54.986Z,62.89
2022-11-03T17:03:58.251Z,63.71
2022-11-03T17:14:03.883Z,64.30
2022-11-03T17:24:08.311Z,64.76
2022-11-03T17:34:12.419Z,65.32
2022-11-03T17:44:17.531Z,65.87
2022-11-03T17:54:20.816Z,66.67
2022-11-03T18:04:24.145Z,67.26
2022-11-03T18:14:29.767Z,67.49
2022-11-03T18:24:33.041Z,67.84
2022-11-03T18:34:36.737Z,68.38
2022-11-03T18:44:41.726Z,68.70
2022-11-03T18:54:47.562Z,68.92
2022-11-03T19:04:51.297Z,69.48
2022-11-03T19:14:54.608Z,69.81
2022-11-03T19:24:57.843Z,70.22
2022-11-03T19:35:20.704Z,70.33
2022-11-03T19:45:24.418Z,70.71
2022-11-03T19:55:40.617Z,70.87
2022-11-03T20:05:49.280Z,71.12
2022-11-03T20:15:58.939Z,71.08
2022-11-03T20:26:04.748Z,71.26
2022-11-03T20:36:15.215Z,71.63
2022-11-03T20:46:18.473Z,71.80
2022-11-03T20:56:24.964Z,71.89
2022-11-03T21:06:30.525Z,72.13
2022-11-03T21:16:52.633Z,72.01
2022-11-03T21:26:55.920Z,72.17
2022-11-03T21:36:59.345Z,72.14
2022-11-03T21:47:02.530Z,72.62
2022-11-03T21:57:08.157Z,73.08
2022-11-03T22:07:12.285Z,73.19
2022-11-03T22:17:15.599Z,73.34
2022-11-03T22:27:18.898Z,73.68
2022-11-03T22:37:22.120Z,73.85
2022-11-03T22:47:27.102Z,73.89
2022-11-03T22:57:30.594Z,74.41
2022-11-03T23:07:41.008Z,74.28
2022-11-03T23:18:03.159Z,74.39
2022-11-03T23:28:06.508Z,74.36
2022-11-03T23:38:10.076Z,74.63
2022-11-03T23:48:39.976Z,74.60
2022-11-03T23:58:43.127Z,74.54
